x

West Sea Otter (46204) Wave Buoy

11:00am - Wed 24th May 2017 All times are PDT. -7 hours from GMT.

  • Sig Wave height 15.4ft
  • Peak Period 8s
  • Wind
    29mph, 34mph gusts
  • Sea Temp 51°f
  • Air Temp 50°f
  • Sea Pressure 1021.1mb
  • West Sea Otter
  • West Sea Otter

More Historic Weather Station data

Upgrade to MSW Pro to gain access to the past 30 days of data for over 8000 Wavebouys and Weather Stations around the globe.

Join Pro

Comparision Forecast

View Surf forecast
   
Wed 05/24 11:00am 15.5ft 8s 29 34 mph 1021.1mb 51f 50f
10:00am 15.5ft 8s 31 40 mph 1021.4mb 51f 49f
9:00am 14ft 8s 31 40 mph 1021.1mb 51f 50f
8:00am 13.5ft 9s 31 36 mph 1021.2mb 52f 50f
7:00am 12ft 10s 31 38 mph 1021mb 51f 50f
6:00am 10.5ft 10s 27 34 mph 1021.4mb 51f 51f
5:00am  -   -  25
mph
- - 51f
4:00am 10ft 9s 25 36 mph 1020.8mb 52f 52f
3:00am 9.5ft 10s 27 31 mph 1020.5mb 52f 52f
2:00am 9.5ft 9s 22 27 mph 1020.4mb 52f 51f
1:00am 10ft 10s 20
mph
1020.2mb 52f 51f
12:00am 9.5ft 10s 20 25 mph 1019.9mb 52f 51f
Tue 05/23 11:00pm 11ft 8s 16 20 mph 1019.9mb 52f 51f
10:00pm 10ft 9s 13 16 mph 1019.9mb 52f 51f
9:00pm 10ft 8s 18 22 mph 1019.2mb 52f 51f
8:00pm 10ft 8s 16 20 mph 1019.2mb 52f 49f
7:00pm 10ft 8s 20 25 mph 1019.3mb 52f 50f
6:00pm 9ft 8s 20 27 mph 1019.4mb 52f 50f
5:00pm 9ft 8s 22 29 mph 1019.4mb 52f 50f
4:00pm 9ft 8s 22 27 mph 1019.4mb 52f 50f
3:00pm 9ft 8s 20 22 mph 1019.1mb 52f 50f
2:00pm 9ft 8s 25 29 mph 1018.4mb 52f 50f
1:00pm 8ft 11s 25 29 mph 1017.7mb 52f 50f
12:00pm 8.5ft 10s 25 31 mph 1017.1mb 52f 51f
11:00am 9ft 12s 25 29 mph 1016.7mb 52f 50f
10:00am 8.5ft 12s 22 27 mph 1016.2mb 52f 51f
9:00am 8ft 11s 22 27 mph 1016mb 53f 52f
8:00am 7.5ft 11s 20 22 mph 1016.1mb 53f 51f
7:00am 6.5ft 12s 18 22 mph 1016.1mb 53f 52f
6:00am 7ft 10s 18 22 mph 1016.2mb 53f 52f
5:00am 6ft 13s 18 20 mph 1016.7mb 54f 52f
4:00am 6ft 11s 18 22 mph 1017.4mb 54f 52f
3:00am 6ft 12s 16 18 mph 1017.8mb 54f 52f
2:00am 6.5ft 12s 16 18 mph 1018.3mb 54f 53f
1:00am 7ft 12s 16 18 mph 1018.9mb 53f 53f
12:00am 7ft 12s 13 16 mph 1019.1mb 54f 53f
Mon 05/22 11:00pm 7ft 11s 13 13 mph 1019.8mb 54f 53f
10:00pm 7.5ft 11s 11 13 mph 1020.2mb 54f 52f
9:00pm 7.5ft 11s 9 13 mph 1020.5mb 54f 53f
8:00pm 7ft 11s 11 13 mph 1021mb 54f 52f
7:00pm 7ft 11s 11 16 mph 1021.5mb 55f 52f
6:00pm 7ft 11s 13 16 mph 1022.1mb 55f 53f
5:00pm 7ft 11s 7 11 mph 1022.4mb 55f 55f
4:00pm 6ft 12s 7 9 mph 1022.9mb 55f 55f
3:00pm 6ft 11s 7 9 mph 1023.4mb 55f 55f
2:00pm 6ft 12s 7 9 mph 1023.5mb 55f 55f
1:00pm 6ft 11s 4 4 mph 1023.7mb 55f 55f
12:00pm 6ft 11s 7 9 mph 1023.9mb 55f 54f
11:00am 6ft 10s 4 9 mph 1023.8mb 54f 54f
10:00am 7ft 10s 7 9 mph 1023.7mb 54f 54f
9:00am 7.5ft 11s 2 7 mph 1023.8mb 54f 53f
8:00am 7.5ft 11s 7 11 mph 1023.1mb 53f 53f
7:00am 8ft 11s 4 7 mph 1024.3mb 53f 53f
6:00am 8ft 10s 4 7 mph 1024.3mb 53f 53f
5:00am 8ft 10s 2 4 mph 1024.6mb 54f 53f
4:00am 7.5ft 10s 2 4 mph 1025mb 53f 53f
3:00am 6.5ft 10s 7 11 mph 1025.7mb 53f 53f
2:00am 6.5ft 10s 7 9 mph 1025.3mb 54f 53f
1:00am 5.5ft 10s 7 9 mph 1025.4mb 54f 53f
12:00am 6ft 10s 4 4 mph 1025.4mb 53f 53f
Sun 05/21 11:00pm 5.5ft 10s 2 4 mph 1025.4mb 54f 53f
10:00pm 6ft 9s 2 4 mph 1025.8mb 54f 53f
9:00pm 5.5ft 10s 2 4 mph 1025.6mb 54f 53f
8:00pm 6ft 10s 7 9 mph 1025.9mb 54f 53f
7:00pm 5ft 10s 7 9 mph 1025.8mb 54f 53f
6:00pm 5ft 9s 7 9 mph 1026.2mb 54f 52f
5:00pm 5ft 9s 7 9 mph 1027mb 55f 53f
4:00pm 4.5ft 8s 4 4 mph 1027mb 55f 52f
3:00pm 4ft 9s 4 7 mph 1027.5mb 55f 51f
2:00pm 3.5ft 9s 4 7 mph 1027.3mb 54f 51f
1:00pm 3.5ft 10s 4 7 mph 1027.5mb 54f 50f
12:00pm 3ft 10s 4 7 mph 1027.2mb 53f 50f
11:00am 3ft 11s 7 9 mph 1026.7mb 53f 50f
10:00am 3ft 10s 7 9 mph 1026.3mb 53f 50f
9:00am 3ft 9s 4 7 mph 1026.2mb 53f 50f
8:00am 3ft 10s 9 11 mph 1025.5mb 53f 50f
7:00am 3ft 8s 7 9 mph 1026mb 53f 50f
6:00am 2.5ft 8s 4 7 mph 1025.6mb 53f 50f
5:00am 3ft 7s 4 7 mph 1025.8mb 53f 50f
4:00am 2.5ft 10s 7 7 mph 1025.6mb 53f 50f
3:00am 2.5ft 10s 7 11 mph 1025.8mb 53f 49f
2:00am 2.5ft 8s 4 7 mph 1025.5mb 53f 49f
1:00am 2.5ft 8s 4 9 mph 1025.4mb 53f 49f
12:00am 2.5ft 10s 4 7 mph 1025.3mb 53f 49f
Sat 05/20 11:00pm 3ft 10s 4 7 mph 1025.4mb 53f 49f
10:00pm 3.5ft 10s 2 4 mph 1025.4mb 53f 49f
9:00pm 3ft 8s 4 7 mph 1025mb 53f 49f
8:00pm 3.5ft 8s 9 11 mph 1024.8mb 53f 49f